KRUE Airport (Russellville Rgnl) Information

FAA: RUE - ICAO: KRUE

KRUE Airport Location

State Arkansas
County Pope
City Russellville
KRUE Airport is 2 miles southeast of Russellville, AR.
Latitude 35-15-33.4190N
Longitude 093-05-33.4400W
Elevation 409ft

KRUE Airport METARs

METAR KRUE 292353Z AUTO 17003KT 10SM CLR 13/04 A3004 RMK AO2 SLP171 T01280044 10189 20128 55001
Altimeter 30.04"
Temperature 12.8°C (55.0°F)
Wind 170° at 3KT
Clouds Skies are clear.
Visibility 10.0mi
Time observed: 2021-11-29T23:53:00Z

KRUE Airport Details

Status Operational
Activation September 1960
Ownership Public
Usage Public
Chart MEMPHIS
ATC on-site No
Beacon schedule sunset-sunrise
Beacon color clear green

KRUE Airport Contacts

Owner CITY OF RUSSELLVILLE
Owner address 203 S. COMMERCE STR, RUSSELLVILLE, AR 72801
Owner phone 479-968-2098
Manager DAVID SATTERFIELD
Manager address 1235 E. CHEROKEE, SPRINGFIELD, MO 65804
Manager phone 417-820-6679

KRUE Airport (Russellville Rgnl) Radio Frequencies

KRUE (Airport) Radio Frequencies

UNICOM 122.7
Common traffic advisory frequency (CTAF) 122.7